Time;durP1;ratioP1;P1;durP2;ratioP2;P2;SDS_P1;SDS_P2;PMS_P1;PMS_P2;Temp;Humidity;BMP_temperature;BMP_pressure;BME280_temperature;BME280_humidity;BME280_pressure;Samples;Min_cycle;Max_cycle;Signal;HPM_P1;HPM_P2
2024/02/24 00:02:27;;;;;;;22.50;13.40;;;;;;;2.64;100.00;101787.38;109068;1251;61253;-73
2024/02/24 00:04:58;;;;;;;25.90;14.00;;;;;;;2.65;100.00;101790.31;109672;1251;59102;-72
2024/02/24 00:07:25;;;;;;;27.00;14.20;;;;;;;2.66;100.00;101792.02;109692;1251;71668;-73
2024/02/24 00:09:53;;;;;;;33.90;14.50;;;;;;;2.67;100.00;101791.67;109482;1251;62590;-73
2024/02/24 00:12:21;;;;;;;23.40;12.50;;;;;;;2.70;100.00;101795.79;106009;1256;71386;-74
2024/02/24 00:14:48;;;;;;;23.30;13.10;;;;;;;2.72;100.00;101793.73;105897;1251;61056;-76
2024/02/24 00:17:15;;;;;;;24.10;14.60;;;;;;;2.72;100.00;101793.02;105940;1255;59652;-75
2024/02/24 00:19:42;;;;;;;24.10;13.20;;;;;;;2.71;100.00;101789.41;106031;1251;72307;-76
2024/02/24 00:22:10;;;;;;;25.10;14.40;;;;;;;2.70;100.00;101790.27;105798;1256;65147;-75
2024/02/24 00:24:39;;;;;;;22.50;14.30;;;;;;;2.71;100.00;101796.14;105823;1255;72736;-75
2024/02/24 00:27:06;;;;;;;24.90;13.60;;;;;;;2.72;100.00;101791.46;105842;1254;59741;-77
2024/02/24 00:29:33;;;;;;;25.20;14.90;;;;;;;2.73;100.00;101788.35;105974;1253;60314;-75
2024/02/24 00:32:00;;;;;;;24.40;15.40;;;;;;;2.73;100.00;101786.80;105799;1251;73050;-75
2024/02/24 00:34:28;;;;;;;25.60;14.30;;;;;;;2.73;100.00;101786.62;105900;1255;63866;-75
2024/02/24 00:36:56;;;;;;;25.10;14.00;;;;;;;2.73;100.00;101785.41;105971;1255;72762;-74
2024/02/24 00:39:23;;;;;;;25.70;16.00;;;;;;;2.73;100.00;101788.86;105876;1251;60050;-76
2024/02/24 00:41:52;;;;;;;26.30;14.70;;;;;;;2.74;100.00;101788.17;105845;1251;59708;-74
2024/02/24 00:44:19;;;;;;;26.20;14.70;;;;;;;2.73;100.00;101790.25;106020;1257;72151;-77
2024/02/24 00:46:47;;;;;;;27.10;15.80;;;;;;;2.72;100.00;101793.71;105822;1254;63881;-74
2024/02/24 00:49:14;;;;;;;24.60;14.30;;;;;;;2.70;100.00;101787.84;105841;1251;71207;-76
2024/02/24 00:51:41;;;;;;;27.10;13.80;;;;;;;2.68;100.00;101786.82;105798;1256;60934;-76
2024/02/24 00:54:08;;;;;;;28.20;16.20;;;;;;;2.68;100.00;101789.06;105903;1251;60365;-73
2024/02/24 00:56:35;;;;;;;24.30;15.30;;;;;;;2.68;100.00;101796.50;105810;1254;73034;-73
2024/02/24 00:59:02;;;;;;;28.40;14.70;;;;;;;2.67;100.00;101799.27;106069;1251;62463;-76
2024/02/24 01:01:30;;;;;;;31.10;17.30;;;;;;;2.64;100.00;101800.52;105810;1256;71564;-74
2024/02/24 01:03:57;;;;;;;30.90;16.60;;;;;;;2.60;100.00;101798.48;105768;1255;60882;-73
2024/02/24 01:06:24;;;;;;;29.70;17.00;;;;;;;2.57;100.00;101796.95;105854;1251;60157;-75
2024/02/24 01:08:52;;;;;;;33.30;18.10;;;;;;;2.54;100.00;101794.21;106051;1251;73091;-74
2024/02/24 01:11:19;;;;;;;28.70;17.60;;;;;;;2.52;100.00;101788.35;105830;1256;63993;-76
2024/02/24 01:13:47;;;;;;;33.90;19.50;;;;;;;2.49;100.00;101787.69;107310;1251;72654;-74
2024/02/24 01:16:14;;;;;;;32.40;16.90;;;;;;;2.47;100.00;101787.70;107344;1256;61218;-74
2024/02/24 01:18:41;;;;;;;28.30;17.50;;;;;;;2.45;100.00;101786.85;105870;1253;60185;-76
2024/02/24 01:21:09;;;;;;;24.90;15.60;;;;;;;2.43;100.00;101788.76;105835;1256;73038;-76
2024/02/24 01:23:38;;;;;;;26.70;15.60;;;;;;;2.39;100.00;101793.44;105798;1251;62429;-74
2024/02/24 01:26:05;;;;;;;29.40;17.70;;;;;;;2.36;100.00;101789.84;105960;1251;71762;-75
2024/02/24 01:28:32;;;;;;;25.20;15.40;;;;;;;2.34;100.00;101787.63;106048;1256;61151;-74
2024/02/24 01:30:58;;;;;;;31.80;17.40;;;;;;;2.32;100.00;101786.08;105936;1251;59779;-74
2024/02/24 01:33:26;;;;;;;29.30;16.10;;;;;;;2.29;100.00;101793.52;105883;1256;72939;-73
2024/02/24 01:35:53;;;;;;;26.10;17.40;;;;;;;2.26;100.00;101788.88;105809;1256;63562;-73
2024/02/24 01:38:21;;;;;;;31.60;17.50;;;;;;;2.24;100.00;101784.73;105971;1251;72663;-74
2024/02/24 01:40:48;;;;;;;24.60;15.20;;;;;;;2.23;100.00;101781.14;106858;1251;61027;-72
2024/02/24 01:43:25;;;;;;;27.60;17.50;;;;;;;2.23;100.00;101778.71;108864;1251;59503;-71
2024/02/24 01:45:53;;;;;;;25.70;16.30;;;;;;;2.23;100.00;101776.82;109161;1251;71882;-72
2024/02/24 01:48:21;;;;;;;25.60;15.40;;;;;;;2.25;100.00;101782.66;108900;1251;62487;-72
2024/02/24 01:50:49;;;;;;;23.40;16.40;;;;;;;2.28;100.00;101786.45;109313;1251;71228;-73
2024/02/24 01:53:16;;;;;;;27.60;16.30;;;;;;;2.31;100.00;101785.05;109744;1251;59638;-73
2024/02/24 01:55:43;;;;;;;25.20;15.80;;;;;;;2.35;100.00;101781.05;109843;1251;59004;-74
2024/02/24 01:58:11;;;;;;;26.10;15.20;;;;;;;2.38;100.00;101781.02;109695;1251;72322;-73
2024/02/24 02:00:37;;;;;;;24.70;15.20;;;;;;;2.44;100.00;101781.85;108873;1252;62541;-74
2024/02/24 02:03:05;;;;;;;27.90;16.90;;;;;;;2.49;100.00;101783.02;105826;1256;71838;-76
2024/02/24 02:05:32;;;;;;;26.30;15.50;;;;;;;2.52;100.00;101782.48;105879;1251;61226;-76
2024/02/24 02:07:59;;;;;;;30.60;16.60;;;;;;;2.57;100.00;101786.24;105841;1253;60533;-75
2024/02/24 02:13:03;;;;;;;27.90;17.60;;;;;;;2.67;100.00;101785.11;103165;1286;600760;-73
2024/02/24 02:15:32;;;;;;;24.70;15.20;;;;;;;2.71;100.00;101788.02;105174;1269;60861;-74
2024/02/24 02:17:59;;;;;;;26.40;15.10;;;;;;;2.75;100.00;101792.65;105012;1269;59314;-76
2024/02/24 02:20:28;;;;;;;27.60;15.80;;;;;;;2.78;100.00;101796.25;105042;1264;71208;-75
2024/02/24 02:22:56;;;;;;;27.90;16.50;;;;;;;2.79;100.00;101791.73;104994;1263;63511;-76
2024/02/24 02:25:23;;;;;;;28.60;16.60;;;;;;;2.81;100.00;101789.14;105362;1262;72536;-77
2024/02/24 02:27:51;;;;;;;25.80;15.90;;;;;;;2.84;100.00;101787.21;105331;1260;191264;-75
2024/02/24 02:30:19;;;;;;;26.20;16.50;;;;;;;2.86;100.00;101788.92;105626;1255;59301;-75
2024/02/24 02:32:46;;;;;;;28.00;17.30;;;;;;;2.87;100.00;101785.46;105938;1259;71338;-74
2024/02/24 02:35:14;;;;;;;32.00;17.30;;;;;;;2.93;100.00;101790.07;105704;1260;62938;-75
2024/02/24 02:37:42;;;;;;;28.00;16.80;;;;;;;2.95;100.00;101789.36;105672;1254;72690;-73
2024/02/24 02:40:09;;;;;;;25.50;16.50;;;;;;;2.98;100.00;101798.48;105702;1260;59959;-75
2024/02/24 02:42:37;;;;;;;30.20;17.00;;;;;;;2.97;100.00;101799.34;105612;1255;59931;-75
2024/02/24 02:45:06;;;;;;;26.80;16.00;;;;;;;2.97;100.00;101791.75;105681;1254;74306;-74
2024/02/24 02:47:33;;;;;;;27.50;16.20;;;;;;;2.97;100.00;101790.89;105696;1254;62413;-73
2024/02/24 02:50:01;;;;;;;26.10;16.80;;;;;;;2.97;100.00;101781.23;105695;1258;72673;-74
2024/02/24 02:52:29;;;;;;;28.00;16.30;;;;;;;2.97;100.00;101781.91;105656;1254;60159;-74
2024/02/24 02:54:56;;;;;;;25.50;15.30;;;;;;;2.95;100.00;101780.89;105645;1254;60696;-76
2024/02/24 02:57:24;;;;;;;26.50;15.50;;;;;;;2.93;100.00;101784.71;105772;1257;71254;-75
2024/02/24 02:59:53;;;;;;;30.90;16.60;;;;;;;2.89;100.00;101782.68;105869;1256;63962;-75
2024/02/24 03:02:20;;;;;;;23.90;15.80;;;;;;;2.88;100.00;101783.73;105729;1257;70582;-75
2024/02/24 03:04:48;;;;;;;26.00;14.70;;;;;;;2.85;100.00;101779.26;109567;1252;61781;-72
2024/02/24 03:07:15;;;;;;;25.80;16.20;;;;;;;2.83;100.00;101783.43;109564;1253;60047;-74
2024/02/24 03:09:47;;;;;;;26.00;15.40;;;;;;;2.80;100.00;101787.95;109432;1254;71978;-74
2024/02/24 03:12:15;;;;;;;23.30;14.50;;;;;;;2.78;100.00;101780.36;109535;1253;62876;-73
2024/02/24 03:14:43;;;;;;;24.40;14.70;;;;;;;2.77;100.00;101787.27;109546;1252;72575;-74
2024/02/24 03:17:11;;;;;;;26.70;16.00;;;;;;;2.78;100.00;101787.27;109540;1253;59955;-74
2024/02/24 03:19:39;;;;;;;23.20;15.10;;;;;;;2.80;100.00;101792.27;109706;1251;59194;-72
2024/02/24 03:22:07;;;;;;;25.70;16.70;;;;;;;2.82;100.00;101800.52;109711;1250;73117;-74
2024/02/24 03:24:34;;;;;;;28.10;15.90;;;;;;;2.81;100.00;101801.91;109670;1250;63579;-74
2024/02/24 03:27:02;;;;;;;26.70;15.40;;;;;;;2.81;100.00;101808.84;109661;1251;72463;-71
2024/02/24 03:29:29;;;;;;;24.90;14.20;;;;;;;2.80;100.00;101808.31;109634;1251;60898;-73
2024/02/24 03:31:59;;;;;;;25.10;15.40;;;;;;;2.79;100.00;101812.82;109654;1250;58804;-74
2024/02/24 03:34:27;;;;;;;25.60;15.40;;;;;;;2.78;100.00;101818.70;109655;1250;73129;-73
2024/02/24 03:36:55;;;;;;;26.40;16.40;;;;;;;2.78;100.00;101828.02;109692;1250;62333;-74
2024/02/24 03:39:22;;;;;;;26.40;17.30;;;;;;;2.78;100.00;101829.40;109643;1249;71787;-74
2024/02/24 03:41:50;;;;;;;23.30;16.20;;;;;;;2.79;100.00;101826.64;109691;1251;60837;-74
2024/02/24 03:44:18;;;;;;;28.30;17.00;;;;;;;2.81;100.00;101825.23;109655;1250;59120;-74
2024/02/24 03:46:46;;;;;;;24.90;16.60;;;;;;;2.80;100.00;101815.92;109694;1251;71674;-74
2024/02/24 03:49:14;;;;;;;27.10;16.40;;;;;;;2.80;100.00;101817.48;109700;1250;62611;-73
2024/02/24 03:51:42;;;;;;;30.50;17.20;;;;;;;2.81;100.00;101817.80;109676;1250;71466;-73
2024/02/24 03:54:10;;;;;;;28.10;17.00;;;;;;;2.81;100.00;101813.84;109649;1251;60868;-75
2024/02/24 03:56:37;;;;;;;27.60;16.20;;;;;;;2.83;100.00;101819.52;109675;1251;58732;-74
2024/02/24 03:59:05;;;;;;;25.90;17.50;;;;;;;2.83;100.00;101822.11;109630;1251;71457;-74
2024/02/24 04:01:32;;;;;;;26.40;17.40;;;;;;;2.82;100.00;101827.46;109705;1249;63538;-75
2024/02/24 04:03:59;;;;;;;26.90;16.70;;;;;;;2.82;100.00;101833.67;109708;1255;72956;-73
2024/02/24 04:06:27;;;;;;;25.40;16.10;;;;;;;2.83;100.00;101837.64;109649;1251;60788;-75
2024/02/24 04:08:55;;;;;;;27.90;16.80;;;;;;;2.85;100.00;101841.77;109756;1251;58597;-74
2024/02/24 04:11:25;;;;;;;26.40;16.70;;;;;;;2.87;100.00;101847.63;109669;1251;73003;-74
2024/02/24 04:13:52;;;;;;;25.90;17.70;;;;;;;2.93;100.00;101853.65;109874;1250;62473;-75
2024/02/24 04:16:19;;;;;;;25.80;16.30;;;;;;;2.99;100.00;101854.79;109654;1251;72464;-74
2024/02/24 04:18:47;;;;;;;25.30;15.60;;;;;;;3.04;100.00;101858.38;109633;1251;59632;-74
2024/02/24 04:21:17;;;;;;;25.10;16.60;;;;;;;3.04;100.00;101858.02;109732;1250;60142;-73
2024/02/24 04:23:44;;;;;;;27.70;15.90;;;;;;;3.02;100.00;101859.08;109726;1250;73057;-74
2024/02/24 04:26:13;;;;;;;24.90;15.60;;;;;;;3.02;100.00;101863.39;109711;1251;62264;-74
2024/02/24 04:28:41;;;;;;;24.30;15.90;;;;;;;3.04;100.00;101863.73;109649;1251;72431;-73
2024/02/24 04:31:08;;;;;;;25.80;16.70;;;;;;;3.06;100.00;101865.61;109677;1251;60831;-73
2024/02/24 04:33:36;;;;;;;26.50;17.30;;;;;;;3.07;100.00;101868.73;109720;1250;60023;-75
2024/02/24 04:36:03;;;;;;;24.30;16.60;;;;;;;3.07;100.00;101872.00;109699;1249;71769;-72
2024/02/24 04:38:31;;;;;;;25.10;15.80;;;;;;;3.07;100.00;101878.22;109700;1251;62806;-76
2024/02/24 04:41:01;;;;;;;26.60;16.20;;;;;;;3.06;100.00;101879.08;109685;1251;72697;-75
2024/02/24 04:43:28;;;;;;;25.40;14.90;;;;;;;3.09;100.00;101886.83;109694;1250;59678;-75
2024/02/24 04:45:56;;;;;;;32.70;15.90;;;;;;;3.14;100.00;101889.21;109734;1251;59988;-75
2024/02/24 04:48:24;;;;;;;21.20;14.20;;;;;;;3.16;100.00;101890.40;109683;1250;71831;-75
2024/02/24 04:50:51;;;;;;;24.40;14.60;;;;;;;3.17;100.00;101898.35;109731;1250;63526;-74
2024/02/24 04:53:19;;;;;;;24.30;15.90;;;;;;;3.18;100.00;101909.39;109680;1250;72497;-75
2024/02/24 04:55:46;;;;;;;22.40;15.00;;;;;;;3.18;100.00;101912.86;109676;1250;60930;-75
2024/02/24 04:58:14;;;;;;;24.60;14.40;;;;;;;3.20;100.00;101920.09;109709;1250;58751;-74
2024/02/24 05:00:42;;;;;;;25.90;16.60;;;;;;;3.22;100.00;101919.39;109661;1250;73159;-75
2024/02/24 05:03:09;;;;;;;26.10;16.20;;;;;;;3.24;100.00;101922.64;109717;1250;61647;-75
2024/02/24 05:05:37;;;;;;;25.60;16.60;;;;;;;3.24;100.00;101926.45;109687;1251;71591;-75
2024/02/24 05:08:06;;;;;;;25.80;16.50;;;;;;;3.24;100.00;101927.31;109644;1251;61065;-75
2024/02/24 05:10:33;;;;;;;25.30;15.40;;;;;;;3.27;100.00;101930.06;109734;1251;60087;-75
2024/02/24 05:13:01;;;;;;;25.30;16.00;;;;;;;3.29;100.00;101927.10;109723;1250;71984;-75
2024/02/24 05:15:32;;;;;;;24.20;15.50;;;;;;;3.30;100.00;101924.84;109741;1250;62623;-75
2024/02/24 05:18:00;;;;;;;28.80;17.90;;;;;;;3.29;100.00;101921.73;109727;1250;73199;-75
2024/02/24 05:20:28;;;;;;;30.30;17.90;;;;;;;3.29;100.00;101923.48;109726;1249;63491;-75
2024/02/24 05:22:56;;;;;;;24.80;16.40;;;;;;;3.28;100.00;101931.10;109844;1249;58825;-73
2024/02/24 05:25:24;;;;;;;19.70;13.60;;;;;;;3.29;100.00;101932.11;109767;1250;71781;-75
2024/02/24 05:27:53;;;;;;;20.70;13.60;;;;;;;3.32;100.00;101926.39;109730;1250;62251;-75
2024/02/24 05:30:20;;;;;;;25.00;14.30;;;;;;;3.36;100.00;101927.21;109712;1249;71257;-75
2024/02/24 05:32:48;;;;;;;20.80;13.80;;;;;;;3.40;100.00;101929.25;109728;1250;59597;-75
2024/02/24 05:35:16;;;;;;;25.20;16.00;;;;;;;3.48;100.00;101926.59;109790;1249;60064;-75
2024/02/24 05:37:44;;;;;;;20.90;14.80;;;;;;;3.60;100.00;101922.31;109732;1249;72739;-76
2024/02/24 05:40:12;;;;;;;21.00;14.10;;;;;;;3.71;100.00;101927.73;109773;1249;63497;-76
2024/02/24 05:42:41;;;;;;;26.00;15.00;;;;;;;3.83;100.00;101927.45;109748;1249;72830;-75
2024/02/24 05:45:09;;;;;;;20.80;15.20;;;;;;;3.92;100.00;101928.04;109754;1250;59964;-76
2024/02/24 05:47:38;;;;;;;23.10;15.40;;;;;;;4.02;100.00;101929.48;109794;1250;60001;-76
2024/02/24 05:50:06;;;;;;;19.60;13.70;;;;;;;4.11;100.00;101933.86;109770;1249;72837;-75
2024/02/24 05:52:34;;;;;;;25.10;14.60;;;;;;;4.21;100.00;101932.54;109737;1250;63748;-74
2024/02/24 05:55:07;;;;;;;21.90;13.50;;;;;;;4.30;100.00;101931.38;109559;1250;72504;-75
2024/02/24 05:57:34;;;;;;;26.90;15.50;;;;;;;4.40;100.00;101933.67;109660;1249;59591;-76
2024/02/24 06:00:04;;;;;;;22.60;15.20;;;;;;;4.50;100.00;101933.02;109755;1250;58763;-75
2024/02/24 06:02:38;;;;;;;17.80;12.60;;;;;;;4.62;100.00;101933.21;109888;1249;71639;-75
2024/02/24 06:05:06;;;;;;;23.90;14.30;;;;;;;4.73;100.00;101933.05;109769;1249;63742;-74
2024/02/24 06:07:38;;;;;;;20.60;12.30;;;;;;;4.83;100.00;101935.68;109747;1250;72714;-75
2024/02/24 06:10:07;;;;;;;19.80;12.80;;;;;;;4.92;100.00;101936.75;109777;1250;59645;-76
2024/02/24 06:12:35;;;;;;;20.20;14.00;;;;;;;5.09;100.00;101934.92;109709;1250;58859;-75
2024/02/24 06:15:02;;;;;;;20.10;12.60;;;;;;;5.34;100.00;101930.70;109818;1249;71765;-74
2024/02/24 06:17:30;;;;;;;18.60;12.70;;;;;;;5.59;100.00;101935.13;109777;1250;62446;-75
2024/02/24 06:19:58;;;;;;;17.30;11.90;;;;;;;5.76;100.00;101939.84;109686;1250;70350;-75
2024/02/24 06:22:26;;;;;;;18.70;12.40;;;;;;;5.89;100.00;101941.85;109706;1252;59979;-76
2024/02/24 06:24:53;;;;;;;17.90;12.40;;;;;;;6.02;100.00;101942.15;109781;1249;60128;-75
2024/02/24 06:27:21;;;;;;;17.90;12.70;;;;;;;6.19;100.00;101941.82;109760;1250;73830;-76
2024/02/24 06:29:48;;;;;;;16.60;11.50;;;;;;;6.35;100.00;101949.30;109783;1249;63643;-75
2024/02/24 06:32:16;;;;;;;19.50;13.10;;;;;;;6.43;100.00;101949.11;109709;1251;72640;-74
2024/02/24 06:34:44;;;;;;;19.10;12.90;;;;;;;6.51;100.00;101947.23;109713;1249;60885;-74
2024/02/24 06:37:12;;;;;;;17.50;12.60;;;;;;;6.67;100.00;101949.65;109750;1249;58889;-76
2024/02/24 06:39:39;;;;;;;16.60;11.30;;;;;;;7.06;100.00;101950.32;109732;1250;73867;-75
2024/02/24 06:42:08;;;;;;;16.50;12.00;;;;;;;7.65;100.00;101950.73;109775;1250;63501;-74
2024/02/24 06:46:43;;;;;;;15.50;11.90;;;;;;;8.16;100.00;101955.45;105774;1289;600534;-76
2024/02/24 06:49:10;;;;;;;16.80;12.70;;;;;;;8.17;100.00;101967.09;105116;1263;59409;-76
2024/02/24 06:51:39;;;;;;;16.00;12.60;;;;;;;8.06;100.00;101961.67;105139;1267;60277;-76
2024/02/24 06:54:06;;;;;;;16.00;11.90;;;;;;;7.91;100.00;101959.47;105342;1263;72297;-75
2024/02/24 06:56:33;;;;;;;15.40;11.60;;;;;;;7.75;100.00;101958.32;105198;1269;64082;-75
2024/02/24 06:59:04;;;;;;;18.60;11.80;;;;;;;7.57;100.00;101957.25;104871;1268;280163;-74
2024/02/24 07:01:31;;;;;;;17.50;12.40;;;;;;;7.37;100.00;101951.48;105314;1265;59786;-75
2024/02/24 07:03:58;;;;;;;16.80;10.80;;;;;;;7.18;100.00;101945.85;105798;1254;60092;-76
2024/02/24 07:06:25;;;;;;;17.10;11.50;;;;;;;7.06;100.00;101941.63;105774;1254;72337;-76
2024/02/24 07:08:56;;;;;;;15.60;10.80;;;;;;;6.97;100.00;101941.84;105764;1253;64025;-75
2024/02/24 07:11:23;;;;;;;17.90;12.10;;;;;;;6.91;100.00;101937.80;105721;1256;72657;-75
2024/02/24 07:13:51;;;;;;;16.40;10.80;;;;;;;6.92;100.00;101941.95;105824;1256;59778;-76
2024/02/24 07:16:19;;;;;;;14.90;11.30;;;;;;;6.93;100.00;101941.41;106054;1252;60188;-75
2024/02/24 07:18:46;;;;;;;16.30;12.20;;;;;;;6.97;100.00;101936.29;105789;1256;73002;-75
2024/02/24 07:21:13;;;;;;;17.60;11.40;;;;;;;7.10;100.00;101935.80;105781;1253;62582;-75
2024/02/24 07:23:40;;;;;;;18.20;12.00;;;;;;;7.21;100.00;101934.48;105729;1256;72765;-75
2024/02/24 07:26:07;;;;;;;14.80;10.80;;;;;;;7.32;100.00;101932.81;105775;1256;59667;-75
2024/02/24 07:28:35;;;;;;;15.00;11.30;;;;;;;7.43;100.00;101926.77;105831;1253;60285;-76
2024/02/24 07:31:03;;;;;;;14.80;10.80;;;;;;;7.51;100.00;101925.71;105968;1253;72861;-77
2024/02/24 07:33:30;;;;;;;16.50;10.80;;;;;;;7.53;100.00;101927.08;105812;1253;62424;-78
2024/02/24 07:35:57;;;;;;;16.30;11.00;;;;;;;7.55;100.00;101929.77;105761;1253;71484;-77
2024/02/24 07:38:26;;;;;;;16.40;10.40;;;;;;;7.56;100.00;101930.63;105755;1253;59759;-75
2024/02/24 07:40:52;;;;;;;13.70;10.20;;;;;;;7.55;100.00;101935.70;105977;1256;59640;-76
2024/02/24 07:43:21;;;;;;;13.90;9.30;;;;;;;7.54;100.00;101936.61;105879;1254;71598;-75
2024/02/24 07:45:49;;;;;;;12.70;9.70;;;;;;;7.56;100.00;101931.67;105993;1254;62926;-74
2024/02/24 07:48:16;;;;;;;15.30;11.00;;;;;;;7.57;100.00;101932.17;105741;1253;72377;-77
2024/02/24 07:50:44;;;;;;;12.30;9.20;;;;;;;7.57;100.00;101933.90;105783;1256;59640;-76
2024/02/24 07:53:12;;;;;;;14.50;8.90;;;;;;;7.62;100.00;101933.80;105925;1253;60166;-77
2024/02/24 07:55:40;;;;;;;13.40;8.60;;;;;;;7.69;100.00;101926.79;105780;1253;72847;-77
2024/02/24 07:58:08;;;;;;;13.20;7.30;;;;;;;7.86;100.00;101927.75;105712;1256;63894;-78
2024/02/24 08:00:35;;;;;;;11.00;7.60;;;;;;;8.11;100.00;101931.23;105810;1256;71629;-78
2024/02/24 08:03:02;;;;;;;12.20;8.10;;;;;;;8.28;100.00;101935.94;105738;1253;59672;-76
2024/02/24 08:05:29;;;;;;;14.70;8.30;;;;;;;8.32;100.00;101928.19;105789;1252;60217;-78
2024/02/24 08:07:56;;;;;;;10.60;8.40;;;;;;;8.41;100.00;101932.46;105764;1253;73091;-77
2024/02/24 08:10:26;;;;;;;11.90;7.50;;;;;;;8.61;100.00;101925.41;105782;1256;64210;-78
2024/02/24 08:12:53;;;;;;;12.30;6.70;;;;;;;8.94;100.00;101926.13;105770;1256;72077;-77
2024/02/24 08:15:19;;;;;;;8.80;7.00;;;;;;;9.35;99.43;101924.09;105721;1252;60427;-77
2024/02/24 08:17:46;;;;;;;9.30;6.70;;;;;;;9.76;91.09;101928.96;105866;1256;60377;-76
2024/02/24 08:20:14;;;;;;;8.00;6.60;;;;;;;10.09;85.87;101926.34;105798;1252;72729;-77
2024/02/24 08:22:43;;;;;;;8.00;6.10;;;;;;;10.39;82.60;101931.36;105783;1256;62364;-77
2024/02/24 08:25:10;;;;;;;9.10;6.20;;;;;;;10.67;78.49;101933.27;105696;1253;72678;-77
2024/02/24 08:27:37;;;;;;;10.50;6.80;;;;;;;10.88;73.57;101935.23;106069;1255;60317;-77
2024/02/24 08:30:05;;;;;;;7.50;6.40;;;;;;;11.07;71.67;101937.63;105988;1256;59582;-77
2024/02/24 08:32:33;;;;;;;11.20;6.20;;;;;;;11.28;70.07;101941.14;106095;1254;72970;-77
2024/02/24 08:35:00;;;;;;;8.90;6.00;;;;;;;11.46;66.21;101942.85;105917;1256;64448;-75
2024/02/24 08:37:27;;;;;;;11.30;6.20;;;;;;;11.50;63.93;101944.05;106011;1256;71133;-77
2024/02/24 08:39:54;;;;;;;14.20;6.40;;;;;;;11.52;65.40;101938.55;106058;1256;60121;-76
2024/02/24 08:42:21;;;;;;;6.70;5.70;;;;;;;11.73;66.56;101941.70;105909;1254;59635;-77
2024/02/24 08:44:48;;;;;;;11.40;6.00;;;;;;;11.96;62.73;101936.31;106017;1252;73047;-76
2024/02/24 08:47:15;;;;;;;10.00;6.30;;;;;;;12.10;63.01;101933.04;105959;1256;62751;-77
2024/02/24 08:49:41;;;;;;;8.00;6.10;;;;;;;12.35;62.79;101940.52;105976;1256;72554;-76
2024/02/24 08:52:08;;;;;;;8.50;5.70;;;;;;;12.65;57.92;101943.48;106045;1255;60450;-77
2024/02/24 08:54:37;;;;;;;9.60;6.20;;;;;;;12.69;57.01;101934.73;106135;1251;60309;-76
2024/02/24 08:57:06;;;;;;;10.90;5.40;;;;;;;12.62;57.10;101940.09;105877;1250;71575;-77
2024/02/24 08:59:34;;;;;;;9.30;5.50;;;;;;;12.62;56.50;101930.83;106179;1250;62379;-76
2024/02/24 09:02:00;;;;;;;9.00;5.10;;;;;;;12.63;56.20;101937.45;107164;1250;75235;-76
2024/02/24 09:04:28;;;;;;;8.70;5.20;;;;;;;12.63;56.13;101936.40;106226;1256;60208;-78
2024/02/24 09:06:55;;;;;;;7.20;5.00;;;;;;;12.58;56.47;101929.95;105999;1250;59502;-79
2024/02/24 09:09:22;;;;;;;9.90;7.40;;;;;;;12.57;57.57;101932.61;106006;1250;71526;-77
2024/02/24 09:11:49;;;;;;;8.40;6.00;;;;;;;12.71;57.87;101930.39;105940;1251;62377;-78
2024/02/24 09:14:16;;;;;;;7.00;5.00;;;;;;;13.01;57.24;101939.11;106032;1250;71477;-77
2024/02/24 09:16:43;;;;;;;8.00;5.90;;;;;;;13.31;55.10;101939.92;105995;1255;60175;-78
2024/02/24 09:19:10;;;;;;;8.00;5.50;;;;;;;13.54;54.28;101937.55;106046;1251;59711;-77
2024/02/24 09:21:37;;;;;;;6.70;5.20;;;;;;;13.80;54.41;101936.89;105980;1250;71185;-79
2024/02/24 09:24:04;;;;;;;10.10;6.10;;;;;;;14.11;52.18;101933.89;105919;1256;63859;-78
2024/02/24 09:26:31;;;;;;;7.40;5.00;;;;;;;14.32;50.70;101937.66;106016;1255;73708;-76
2024/02/24 09:28:58;;;;;;;7.20;4.50;;;;;;;14.46;49.14;101932.98;107462;1250;59613;-73
2024/02/24 09:31:28;;;;;;;8.00;6.00;;;;;;;14.51;48.58;101935.20;108440;1250;59333;-75
2024/02/24 09:33:55;;;;;;;10.80;5.60;;;;;;;14.56;48.78;101934.61;106128;1255;73068;-77
2024/02/24 09:36:22;;;;;;;8.40;6.00;;;;;;;14.73;47.97;101935.98;106064;1256;63869;-78
2024/02/24 09:38:50;;;;;;;7.60;5.60;;;;;;;14.82;46.85;101935.45;106064;1250;72742;-75
2024/02/24 09:41:20;;;;;;;8.40;4.80;;;;;;;14.74;46.77;101946.08;105991;1255;60229;-79
2024/02/24 09:43:47;;;;;;;7.10;5.20;;;;;;;14.62;47.24;101945.52;106061;1254;60310;-78
2024/02/24 09:46:16;;;;;;;6.40;4.80;;;;;;;14.50;47.18;101949.19;106081;1251;73239;-76
2024/02/24 09:48:44;;;;;;;5.70;4.80;;;;;;;14.29;47.10;101944.54;105896;1254;63995;-78
2024/02/24 09:51:11;;;;;;;7.80;5.70;;;;;;;13.96;48.36;101943.61;105950;1251;72852;-77
2024/02/24 09:53:38;;;;;;;6.60;5.80;;;;;;;13.79;49.40;101939.61;105934;1251;60088;-75
2024/02/24 09:56:06;;;;;;;8.10;5.40;;;;;;;13.74;49.90;101935.63;105911;1251;59743;-78
2024/02/24 09:58:33;;;;;;;8.50;5.10;;;;;;;13.77;49.64;101941.47;105963;1251;72975;-77
2024/02/24 10:01:00;;;;;;;6.70;6.00;;;;;;;13.76;49.28;101948.39;105979;1250;62584;-78
2024/02/24 10:03:27;;;;;;;8.60;5.40;;;;;;;13.58;49.24;101944.55;106026;1255;72595;-79
2024/02/24 10:05:54;;;;;;;7.90;5.30;;;;;;;13.39;50.02;101945.89;105908;1255;60341;-78
2024/02/24 10:08:22;;;;;;;5.10;4.40;;;;;;;13.29;50.37;101946.88;106209;1250;60187;-78
2024/02/24 10:10:51;;;;;;;9.30;4.60;;;;;;;13.18;51.53;101950.59;106932;1251;73092;-77
2024/02/24 10:13:21;;;;;;;7.60;4.50;;;;;;;13.19;53.12;101945.62;106116;1250;63964;-77
2024/02/24 10:15:48;;;;;;;8.60;4.60;;;;;;;13.34;51.98;101951.05;106003;1251;72491;-77
2024/02/24 10:18:16;;;;;;;4.20;3.80;;;;;;;13.39;51.61;101944.29;105979;1255;60312;-77
2024/02/24 10:20:43;;;;;;;8.40;4.10;;;;;;;13.31;51.07;101944.17;106014;1254;61207;-76
2024/02/24 10:23:11;;;;;;;7.40;4.20;;;;;;;13.16;51.40;101941.53;106124;1251;73025;-75
2024/02/24 10:25:38;;;;;;;9.90;4.50;;;;;;;13.10;52.35;101935.89;106047;1251;65113;-78
2024/02/24 10:28:05;;;;;;;5.40;3.70;;;;;;;13.17;51.42;101933.95;106356;1249;71354;-76
2024/02/24 10:30:32;;;;;;;7.20;4.30;;;;;;;13.12;51.11;101932.81;106614;1253;60250;-77
2024/02/24 10:32:59;;;;;;;7.50;4.50;;;;;;;13.03;51.97;101932.17;106137;1253;60133;-77
2024/02/24 10:35:27;;;;;;;8.10;4.70;;;;;;;13.04;52.47;101932.31;106123;1253;72906;-75
2024/02/24 10:37:54;;;;;;;9.00;4.50;;;;;;;13.09;52.24;101925.75;106063;1253;63919;-77
2024/02/24 10:40:41;;;;;;;6.50;4.50;;;;;;;13.08;52.28;101929.49;105953;1251;72511;-77
2024/02/24 10:43:09;;;;;;;10.20;4.60;;;;;;;13.04;52.15;101929.66;105963;1254;60287;-77
2024/02/24 10:45:35;;;;;;;5.00;4.10;;;;;;;13.01;52.83;101923.13;106112;1251;60176;-77
2024/02/24 10:48:03;;;;;;;6.50;4.60;;;;;;;13.06;52.63;101916.92;106017;1251;72909;-77
2024/02/24 10:50:30;;;;;;;4.70;4.30;;;;;;;13.07;52.46;101906.55;106143;1253;63718;-78
2024/02/24 10:52:58;;;;;;;5.50;4.20;;;;;;;13.05;52.70;101912.06;106073;1253;72683;-76
2024/02/24 10:55:25;;;;;;;8.70;4.10;;;;;;;13.02;53.07;101913.61;105932;1255;62305;-76
2024/02/24 10:57:53;;;;;;;7.90;4.10;;;;;;;13.04;53.18;101915.98;105930;1256;60533;-77
2024/02/24 11:00:24;;;;;;;6.30;4.40;;;;;;;13.07;52.90;101912.13;105912;1253;73335;-76
2024/02/24 11:02:51;;;;;;;7.40;4.20;;;;;;;13.15;52.81;101912.30;106225;1253;63747;-77
2024/02/24 11:05:18;;;;;;;4.70;4.30;;;;;;;13.24;52.21;101907.08;106049;1253;72052;-76
2024/02/24 11:07:45;;;;;;;7.60;4.30;;;;;;;13.43;52.42;101904.58;106049;1253;60546;-76
2024/02/24 11:10:18;;;;;;;5.10;3.70;;;;;;;13.78;50.91;101903.78;106345;1253;60534;-76
2024/02/24 11:12:52;;;;;;;4.70;3.80;;;;;;;14.20;49.43;101908.05;106235;1253;74129;-77
2024/02/24 11:15:23;;;;;;;6.30;3.30;;;;;;;14.57;46.91;101894.58;106149;1253;62147;-76